createdAt,value
2023-03-15T00:03:05.689Z,9.50
2023-03-15T00:06:01.210Z,9.80
2023-03-15T00:08:52.217Z,9.10
2023-03-15T00:11:39.879Z,8.90
2023-03-15T00:14:26.494Z,9.40
2023-03-15T00:17:13.378Z,9.10
2023-03-15T00:20:02.081Z,8.80
2023-03-15T00:22:49.023Z,9.00
2023-03-15T00:25:36.411Z,9.10
2023-03-15T00:28:34.969Z,8.90
2023-03-15T00:31:29.873Z,9.20
2023-03-15T00:34:24.006Z,9.20
2023-03-15T00:37:11.583Z,9.70
2023-03-15T00:39:58.595Z,9.20
2023-03-15T00:42:50.152Z,9.90
2023-03-15T00:45:36.917Z,9.50
2023-03-15T00:48:23.510Z,9.50
2023-03-15T00:51:13.898Z,9.50
2023-03-15T00:54:00.865Z,9.90
2023-03-15T00:56:47.567Z,6.10
2023-03-15T00:59:35.261Z,3.50
2023-03-15T01:02:24.722Z,3.10
2023-03-15T01:05:11.945Z,2.60
2023-03-15T01:07:58.854Z,1.80
2023-03-15T01:10:45.776Z,2.40
2023-03-15T01:13:33.522Z,2.00
2023-03-15T01:16:21.505Z,1.90
2023-03-15T01:19:08.269Z,2.40
2023-03-15T01:21:54.978Z,2.70
2023-03-15T01:24:41.772Z,2.30
2023-03-15T01:27:28.600Z,1.00
2023-03-15T01:30:15.332Z,1.20
2023-03-15T01:33:02.081Z,1.20
2023-03-15T01:36:03.364Z,1.20
2023-03-15T01:38:51.213Z,1.40
2023-03-15T01:41:38.116Z,1.50
2023-03-15T01:44:25.060Z,1.40
2023-03-15T01:47:13.224Z,1.50
2023-03-15T01:50:08.642Z,1.70
2023-03-15T01:52:55.252Z,1.80
2023-03-15T01:55:42.005Z,1.80
2023-03-15T01:58:29.416Z,2.00
2023-03-15T02:01:16.978Z,2.10
2023-03-15T02:04:09.650Z,1.70
2023-03-15T02:07:00.918Z,1.40
2023-03-15T02:10:03.701Z,1.30
2023-03-15T02:12:53.304Z,1.40
2023-03-15T02:15:47.002Z,1.40
2023-03-15T02:18:37.235Z,1.70
2023-03-15T02:21:55.256Z,3.50
2023-03-15T02:24:45.661Z,5.00
2023-03-15T02:27:37.817Z,5.00
2023-03-15T02:30:24.406Z,4.30
2023-03-15T02:33:25.880Z,4.40
2023-03-15T02:36:20.552Z,3.70
2023-03-15T02:39:19.602Z,3.20
2023-03-15T02:42:08.020Z,3.20
2023-03-15T02:44:57.051Z,3.20
2023-03-15T02:47:45.872Z,3.40
2023-03-15T02:50:33.342Z,2.60
2023-03-15T02:53:20.169Z,2.20
2023-03-15T02:56:07.231Z,2.00
2023-03-15T02:58:53.991Z,2.00
2023-03-15T03:01:41.377Z,2.30
2023-03-15T03:04:27.815Z,3.00
2023-03-15T03:07:14.644Z,2.30
2023-03-15T03:10:01.294Z,2.40
2023-03-15T03:12:47.862Z,2.20
2023-03-15T03:15:34.558Z,1.90
2023-03-15T03:18:21.255Z,2.10
2023-03-15T03:21:08.655Z,2.70
2023-03-15T03:23:55.692Z,2.60
2023-03-15T03:26:42.389Z,3.00
2023-03-15T03:29:29.209Z,2.40
2023-03-15T03:32:16.022Z,2.50
2023-03-15T03:35:02.838Z,1.90
2023-03-15T03:37:49.573Z,1.80
2023-03-15T03:40:36.186Z,1.90
2023-03-15T03:43:23.031Z,1.90
2023-03-15T03:46:09.736Z,1.80
2023-03-15T03:48:57.080Z,1.90
2023-03-15T03:51:43.819Z,2.00
2023-03-15T03:54:32.257Z,2.30
2023-03-15T03:57:18.772Z,2.00
2023-03-15T04:00:09.553Z,2.70
2023-03-15T04:02:58.097Z,2.20
2023-03-15T04:05:46.460Z,2.20
2023-03-15T04:08:35.022Z,2.50
2023-03-15T04:11:22.399Z,2.60
2023-03-15T04:14:13.935Z,2.60
2023-03-15T04:17:03.918Z,2.60
2023-03-15T04:19:52.063Z,2.80
2023-03-15T04:22:39.481Z,2.90
2023-03-15T04:25:26.561Z,2.90
2023-03-15T04:28:13.086Z,3.10
2023-03-15T04:30:59.737Z,2.80
2023-03-15T04:33:46.571Z,3.20
2023-03-15T04:36:33.372Z,3.00
2023-03-15T04:39:20.057Z,3.10
2023-03-15T04:42:07.223Z,3.30
2023-03-15T04:44:54.131Z,3.80
2023-03-15T04:47:41.317Z,3.50
2023-03-15T04:50:30.403Z,3.70
2023-03-15T04:53:18.465Z,3.80
2023-03-15T04:56:05.840Z,3.70
2023-03-15T04:58:52.104Z,3.40
2023-03-15T05:01:39.331Z,3.50
2023-03-15T05:04:25.942Z,3.60
2023-03-15T05:07:12.965Z,3.80
2023-03-15T05:09:59.466Z,3.80
2023-03-15T05:12:47.166Z,3.30
2023-03-15T05:15:34.760Z,3.60
2023-03-15T05:18:22.095Z,3.60
2023-03-15T05:21:10.808Z,3.70
2023-03-15T05:23:57.590Z,3.50
2023-03-15T05:26:46.495Z,3.40
2023-03-15T05:29:33.529Z,3.80
2023-03-15T05:35:36.772Z,3.20
2023-03-15T05:38:26.685Z,3.70
2023-03-15T05:41:17.954Z,3.70
2023-03-15T05:44:05.216Z,4.00
2023-03-15T05:46:51.816Z,3.60
2023-03-15T05:49:38.053Z,3.90
2023-03-15T05:52:24.746Z,3.70
2023-03-15T05:55:13.604Z,3.90
2023-03-15T05:57:59.985Z,3.80
2023-03-15T06:00:47.300Z,4.20
2023-03-15T06:03:34.076Z,4.30
2023-03-15T06:06:20.824Z,4.80
2023-03-15T06:09:07.148Z,4.60
2023-03-15T06:11:53.936Z,4.50
2023-03-15T06:14:40.742Z,3.90
2023-03-15T06:17:27.696Z,4.10
2023-03-15T06:26:40.862Z,4.30
2023-03-15T06:29:28.028Z,4.40
2023-03-15T06:32:14.887Z,4.90
2023-03-15T06:35:05.324Z,4.80
2023-03-15T06:37:53.264Z,4.50
2023-03-15T06:40:44.298Z,4.30
2023-03-15T06:43:31.957Z,4.30
2023-03-15T06:46:18.482Z,4.10
2023-03-15T06:49:05.046Z,4.20
2023-03-15T06:51:52.181Z,4.10
2023-03-15T06:54:38.987Z,4.40
2023-03-15T06:57:27.385Z,4.00
2023-03-15T07:00:15.142Z,3.80
2023-03-15T07:03:01.769Z,3.60
2023-03-15T07:05:56.801Z,4.40
2023-03-15T07:08:43.786Z,6.80
2023-03-15T07:11:30.132Z,5.40
2023-03-15T07:14:17.035Z,4.70
2023-03-15T07:17:04.759Z,4.90
2023-03-15T07:19:56.569Z,5.30
2023-03-15T07:22:45.628Z,5.40
2023-03-15T07:25:33.346Z,5.90
2023-03-15T07:28:24.272Z,6.10
2023-03-15T07:31:11.655Z,6.10
2023-03-15T07:33:58.026Z,6.80
2023-03-15T07:36:44.720Z,7.60
2023-03-15T07:39:32.609Z,7.50
2023-03-15T07:42:19.737Z,7.10
2023-03-15T07:45:10.725Z,7.40
2023-03-15T07:47:57.382Z,7.50
2023-03-15T07:50:45.435Z,7.30
2023-03-15T07:53:32.016Z,6.90
2023-03-15T07:56:19.735Z,6.80
2023-03-15T08:00:18.901Z,6.60
2023-03-15T08:03:21.666Z,7.70
2023-03-15T08:06:08.557Z,7.40
2023-03-15T08:08:54.943Z,7.10
2023-03-15T08:11:42.266Z,8.10
2023-03-15T08:14:31.848Z,8.60
2023-03-15T08:17:18.759Z,8.40
2023-03-15T08:20:07.962Z,8.10
2023-03-15T08:22:54.912Z,7.80
2023-03-15T08:25:41.800Z,7.80
2023-03-15T08:28:28.321Z,7.60
2023-03-15T08:31:14.980Z,7.70
2023-03-15T08:34:01.720Z,7.70
2023-03-15T08:36:49.025Z,8.90
2023-03-15T08:39:39.180Z,8.00
2023-03-15T08:42:26.044Z,9.30
2023-03-15T08:45:13.587Z,9.00
2023-03-15T08:48:01.198Z,9.10
2023-03-15T08:50:47.908Z,8.80
2023-03-15T08:53:35.585Z,8.50
2023-03-15T08:56:22.466Z,8.10
2023-03-15T08:59:12.828Z,7.60
2023-03-15T09:02:01.496Z,7.20
2023-03-15T09:04:48.760Z,6.40
2023-03-15T09:07:44.158Z,6.40
2023-03-15T09:10:30.410Z,6.20
2023-03-15T09:13:16.884Z,6.40
2023-03-15T09:16:04.803Z,5.90
2023-03-15T09:18:51.650Z,5.90
2023-03-15T09:21:38.475Z,5.80
2023-03-15T09:24:25.097Z,5.30
2023-03-15T09:27:11.877Z,5.40
2023-03-15T09:29:58.213Z,5.00
2023-03-15T09:32:45.881Z,5.30
2023-03-15T09:35:32.836Z,4.90
2023-03-15T09:38:20.356Z,5.60
2023-03-15T09:41:06.884Z,4.70
2023-03-15T09:44:32.430Z,4.50
2023-03-15T09:47:47.108Z,4.30
2023-03-15T09:50:40.970Z,4.40
2023-03-15T09:53:36.359Z,4.70
2023-03-15T09:56:25.387Z,4.50
2023-03-15T09:59:13.463Z,3.90
2023-03-15T10:02:15.772Z,3.50
2023-03-15T10:05:16.545Z,3.10
2023-03-15T10:08:03.547Z,3.20
2023-03-15T10:11:14.656Z,3.40
2023-03-15T10:14:09.524Z,3.30
2023-03-15T10:16:56.058Z,2.80
2023-03-15T10:19:50.575Z,3.20
2023-03-15T10:22:46.174Z,3.30
2023-03-15T10:25:33.354Z,3.30
2023-03-15T10:28:25.468Z,3.30
2023-03-15T10:31:25.848Z,3.70
2023-03-15T10:34:16.901Z,3.80
2023-03-15T10:37:06.428Z,3.70
2023-03-15T10:39:59.720Z,4.00
2023-03-15T10:42:47.433Z,3.90
2023-03-15T10:45:34.474Z,4.00
2023-03-15T10:48:21.155Z,4.10
2023-03-15T10:51:27.449Z,4.00
2023-03-15T10:54:25.100Z,4.00
2023-03-15T10:57:17.893Z,3.90
2023-03-15T11:00:20.762Z,4.30
2023-03-15T11:03:17.061Z,4.10
2023-03-15T11:06:20.755Z,4.60
2023-03-15T11:09:10.740Z,4.50
2023-03-15T11:12:01.129Z,4.50
2023-03-15T11:14:50.574Z,4.70
2023-03-15T11:17:44.149Z,4.80
2023-03-15T11:20:40.137Z,5.00
2023-03-15T11:23:29.656Z,5.00
2023-03-15T11:26:31.404Z,5.00
2023-03-15T11:29:19.201Z,5.40
2023-03-15T11:32:23.205Z,5.30
2023-03-15T11:35:19.664Z,4.90
2023-03-15T11:38:15.988Z,4.50
2023-03-15T11:41:13.718Z,3.90
2023-03-15T11:44:25.885Z,3.60
2023-03-15T11:47:28.402Z,4.90
2023-03-15T11:50:16.168Z,5.70
2023-03-15T11:53:07.067Z,5.80
2023-03-15T11:55:54.931Z,3.90
2023-03-15T11:58:42.739Z,4.10
2023-03-15T12:01:29.192Z,3.90
2023-03-15T12:04:38.051Z,5.00
2023-03-15T12:07:31.046Z,4.90
2023-03-15T12:10:32.806Z,8.50
2023-03-15T12:13:28.728Z,8.00
2023-03-15T12:16:22.425Z,8.10
2023-03-15T12:19:15.457Z,5.90
2023-03-15T12:22:05.930Z,5.30
2023-03-15T12:24:55.655Z,5.10
2023-03-15T12:27:55.846Z,4.80
2023-03-15T12:30:55.332Z,4.90
2023-03-15T12:34:11.668Z,5.20
2023-03-15T12:37:09.318Z,4.60
2023-03-15T12:44:50.542Z,5.30
2023-03-15T12:47:58.250Z,5.30
2023-03-15T12:50:45.023Z,4.40
2023-03-15T12:53:40.572Z,5.00
2023-03-15T12:56:38.626Z,5.00
2023-03-15T12:59:44.173Z,5.80
2023-03-15T13:02:43.338Z,5.10
2023-03-15T13:05:34.481Z,5.10
2023-03-15T13:08:55.229Z,4.70
2023-03-15T13:12:15.918Z,4.50
2023-03-15T13:15:15.181Z,4.70
2023-03-15T13:26:37.752Z,4.00
2023-03-15T13:29:31.014Z,4.30
2023-03-15T13:32:22.557Z,4.70
2023-03-15T13:35:13.745Z,4.50
2023-03-15T13:38:07.885Z,4.50
2023-03-15T13:40:57.586Z,3.70
2023-03-15T13:44:00.910Z,3.80
2023-03-15T13:46:53.307Z,4.00
2023-03-15T13:49:39.829Z,3.80
2023-03-15T13:52:26.642Z,4.30
2023-03-15T13:55:16.013Z,4.40
2023-03-15T13:58:07.725Z,4.30
2023-03-15T14:01:04.973Z,3.90
2023-03-15T14:04:07.539Z,3.90
2023-03-15T14:07:13.408Z,3.60
2023-03-15T14:10:23.729Z,3.70
2023-03-15T14:13:28.162Z,3.50
2023-03-15T14:16:18.229Z,3.90
2023-03-15T14:19:28.538Z,4.20
2023-03-15T14:22:19.217Z,3.80
2023-03-15T14:25:21.341Z,3.00
2023-03-15T14:28:15.800Z,3.40
2023-03-15T14:31:03.359Z,4.50
2023-03-15T14:34:05.029Z,4.60
2023-03-15T14:36:58.181Z,4.30
2023-03-15T14:39:44.892Z,4.10
2023-03-15T14:42:33.546Z,4.60
2023-03-15T14:45:22.484Z,5.60
2023-03-15T14:48:24.066Z,7.00
2023-03-15T14:51:25.757Z,6.60
2023-03-15T14:54:13.455Z,6.10
2023-03-15T14:57:00.593Z,5.10
2023-03-15T14:59:50.798Z,4.20
2023-03-15T15:02:44.057Z,4.10
2023-03-15T15:05:34.431Z,3.90
2023-03-15T15:08:22.531Z,4.00
2023-03-15T15:11:10.461Z,3.70
2023-03-15T15:13:57.940Z,3.30
2023-03-15T15:16:44.893Z,3.80
2023-03-15T15:19:31.743Z,3.90
2023-03-15T15:22:19.466Z,4.00
2023-03-15T15:25:14.384Z,4.10
2023-03-15T15:28:01.082Z,3.80
2023-03-15T15:31:45.185Z,4.10
2023-03-15T15:34:34.151Z,4.30
2023-03-15T15:37:36.496Z,4.10
2023-03-15T15:40:28.089Z,3.80
2023-03-15T15:43:14.570Z,3.30
2023-03-15T15:46:02.105Z,3.60
2023-03-15T15:48:48.847Z,3.80
2023-03-15T15:51:45.888Z,4.10
2023-03-15T15:54:35.775Z,4.10
2023-03-15T15:57:26.559Z,4.20
2023-03-15T16:00:24.017Z,4.90
2023-03-15T16:03:18.643Z,4.80
2023-03-15T16:12:32.948Z,4.70
2023-03-15T16:15:19.465Z,5.10
2023-03-15T16:18:11.821Z,5.40
2023-03-15T16:21:01.079Z,5.30
2023-03-15T16:23:54.427Z,5.30
2023-03-15T16:26:41.404Z,5.10
2023-03-15T16:29:37.925Z,7.80
2023-03-15T16:32:42.872Z,7.00
2023-03-15T16:35:36.551Z,4.40
2023-03-15T16:38:30.104Z,4.20
2023-03-15T16:41:17.991Z,4.70
2023-03-15T16:44:11.726Z,4.70
2023-03-15T16:46:58.610Z,4.30
2023-03-15T16:49:45.734Z,4.50
2023-03-15T16:52:33.174Z,5.10
2023-03-15T16:55:25.007Z,5.20
2023-03-15T16:58:17.134Z,5.80
2023-03-15T17:01:03.555Z,5.50
2023-03-15T17:03:50.950Z,5.70
2023-03-15T17:06:37.996Z,6.20
2023-03-15T17:09:24.645Z,5.70
2023-03-15T17:12:23.759Z,6.10
2023-03-15T17:15:11.712Z,5.70
2023-03-15T17:17:58.356Z,6.10
2023-03-15T17:20:48.556Z,6.30
2023-03-15T17:23:37.165Z,6.40
2023-03-15T17:26:24.462Z,6.50
2023-03-15T17:29:15.177Z,12.60
2023-03-15T17:32:02.355Z,9.30
2023-03-15T17:34:48.926Z,9.00
2023-03-15T17:37:38.029Z,8.30
2023-03-15T17:40:29.887Z,6.80
2023-03-15T17:43:17.329Z,7.40
2023-03-15T17:46:04.398Z,8.10
2023-03-15T17:48:51.363Z,7.90
2023-03-15T17:51:38.468Z,8.10
2023-03-15T17:54:24.962Z,7.70
2023-03-15T17:57:15.051Z,8.50
2023-03-15T18:00:02.448Z,8.00
2023-03-15T18:02:55.583Z,8.60
2023-03-15T18:05:44.349Z,9.40
2023-03-15T18:08:31.462Z,9.50
2023-03-15T18:11:33.922Z,9.60
2023-03-15T18:14:21.120Z,10.00
2023-03-15T18:17:07.697Z,9.50
2023-03-15T18:19:54.662Z,9.10
2023-03-15T18:22:43.267Z,8.80
2023-03-15T18:25:32.879Z,8.50
2023-03-15T18:28:20.276Z,9.20
2023-03-15T18:31:26.338Z,8.80
2023-03-15T18:34:17.213Z,9.20
2023-03-15T18:37:05.772Z,9.20
2023-03-15T18:39:52.278Z,9.60
2023-03-15T18:42:40.792Z,9.70
2023-03-15T18:45:30.834Z,10.60
2023-03-15T18:48:19.545Z,9.80
2023-03-15T18:51:12.211Z,9.20
2023-03-15T18:53:58.935Z,9.10
2023-03-15T18:56:46.987Z,8.70
2023-03-15T18:59:34.104Z,8.70
2023-03-15T19:02:20.834Z,8.30
2023-03-15T19:05:08.319Z,8.60
2023-03-15T19:07:55.313Z,9.70
2023-03-15T19:10:44.276Z,10.00
2023-03-15T19:13:32.662Z,10.00
2023-03-15T19:16:20.708Z,9.80
2023-03-15T19:19:36.960Z,9.60
2023-03-15T19:22:23.655Z,10.20
2023-03-15T19:25:14.209Z,10.30
2023-03-15T19:28:00.609Z,10.30
2023-03-15T19:30:51.808Z,9.60
2023-03-15T19:33:39.379Z,9.60
2023-03-15T19:36:26.323Z,9.30
2023-03-15T19:39:14.912Z,9.20
2023-03-15T19:42:05.022Z,9.10
2023-03-15T19:44:51.871Z,9.30
2023-03-15T19:47:39.424Z,9.30
2023-03-15T19:50:33.439Z,9.80
2023-03-15T19:53:28.555Z,17.60
2023-03-15T19:56:15.540Z,10.70
2023-03-15T19:59:06.877Z,10.00
2023-03-15T20:01:55.649Z,9.50
2023-03-15T20:04:50.094Z,9.30
2023-03-15T20:07:38.578Z,9.80
2023-03-15T20:10:25.793Z,9.10
2023-03-15T20:13:12.829Z,9.10
2023-03-15T20:16:01.931Z,10.90
2023-03-15T20:18:51.685Z,10.30
2023-03-15T20:21:44.910Z,10.80
2023-03-15T20:24:32.936Z,10.60
2023-03-15T20:27:21.472Z,10.50
2023-03-15T20:30:17.800Z,10.60
2023-03-15T20:33:06.602Z,10.20
2023-03-15T20:35:53.532Z,10.30
2023-03-15T20:38:40.600Z,9.90
2023-03-15T20:41:27.519Z,10.60
2023-03-15T20:44:14.186Z,10.40
2023-03-15T20:47:02.139Z,10.40
2023-03-15T20:49:48.968Z,11.20
2023-03-15T20:52:36.126Z,10.70
2023-03-15T20:55:24.735Z,11.40
2023-03-15T20:58:12.761Z,15.40
2023-03-15T21:01:04.630Z,12.70
2023-03-15T21:03:57.583Z,12.10
2023-03-15T21:06:45.420Z,10.90
2023-03-15T21:09:32.187Z,10.90
2023-03-15T21:12:20.216Z,11.30
2023-03-15T21:15:07.433Z,11.80
2023-03-15T21:17:53.959Z,11.40
2023-03-15T21:20:41.202Z,12.00
2023-03-15T21:23:31.238Z,11.90
2023-03-15T21:26:19.900Z,11.70
2023-03-15T21:29:07.468Z,11.10
2023-03-15T21:31:53.747Z,11.80
2023-03-15T21:34:42.563Z,11.50
2023-03-15T21:44:08.994Z,9.90
2023-03-15T21:46:54.593Z,10.70
2023-03-15T21:49:44.034Z,11.10
2023-03-15T21:52:28.918Z,13.10
2023-03-15T21:55:16.598Z,11.90
2023-03-15T21:58:04.176Z,11.40
2023-03-15T22:00:49.686Z,11.70
2023-03-15T22:03:41.828Z,13.10
2023-03-15T22:06:27.472Z,12.90
2023-03-15T22:09:12.712Z,12.80
2023-03-15T22:11:58.223Z,13.10
2023-03-15T22:14:44.690Z,13.10
2023-03-15T22:17:31.206Z,13.20
2023-03-15T22:20:17.128Z,13.00
2023-03-15T22:23:03.751Z,13.70
2023-03-15T22:25:49.531Z,13.90
2023-03-15T22:28:34.791Z,14.00
2023-03-15T22:31:20.532Z,13.70
2023-03-15T22:34:06.217Z,14.40
2023-03-15T22:36:52.112Z,14.20
2023-03-15T22:39:37.132Z,14.20
2023-03-15T22:42:22.095Z,14.20
2023-03-15T22:45:07.833Z,13.20
2023-03-15T22:47:53.200Z,14.00
2023-03-15T22:50:38.221Z,14.30
2023-03-15T22:53:23.710Z,14.60
2023-03-15T22:56:08.756Z,14.70
2023-03-15T22:58:55.455Z,15.60
2023-03-15T23:01:40.747Z,15.00
2023-03-15T23:04:26.239Z,15.20
2023-03-15T23:07:12.165Z,15.10
2023-03-15T23:09:57.179Z,15.30
2023-03-15T23:12:42.291Z,15.10
2023-03-15T23:15:28.990Z,15.80
2023-03-15T23:18:15.497Z,15.70
2023-03-15T23:21:09.461Z,16.30
2023-03-15T23:23:54.675Z,16.40
2023-03-15T23:26:39.715Z,17.00
2023-03-15T23:29:25.041Z,16.50
2023-03-15T23:32:11.032Z,17.40
2023-03-15T23:34:56.777Z,16.90
2023-03-15T23:37:42.486Z,17.00
2023-03-15T23:40:29.583Z,17.50
2023-03-15T23:43:15.121Z,17.70
2023-03-15T23:46:04.478Z,17.70
2023-03-15T23:48:51.722Z,18.80
2023-03-15T23:51:37.033Z,18.40
2023-03-15T23:54:23.010Z,19.70
2023-03-15T23:57:11.427Z,19.80
2023-03-15T23:59:56.675Z,20.70
